ADDS TAF Board (Experimental) INFO Settings
IDs:

KMCI - Kansas City Intl, MO, US

Issued at 2321 UTC 05 Feb 2016
Updated at: 0030 UTC 06 Feb 2016
Time2353Z 06/01Z 06/02Z 06/03Z 06/04Z 06/05Z 06/06Z 06/07Z 06/08Z 06/09Z 06/10Z 06/11Z 06/12Z 06/13Z
Type OBS PRVL PRVL PRVL PRVL PRVL PRVL PRVL PRVL PRVL PRVL PRVL PRVL PRVL
VIS 10 >6 >6 >6 >6 >6 >6 >6 >6 >6 >6 >6 >6 >6
CIG 100 100 100 100 100 100 100 100 70 70 70 70 70 70
Cover OVC BKN BKN BKN BKN BKN BKN BKN BKN BKN BKN BKN BKN BKN
FltCat VFR VFR VFR VFR VFR VFR VFR VFR VFR VFR VFR VFR VFR VFR
WX -- -- -- -- -- -- -- -- -- -- -- -- -- --
WDir 130 190 190 190 190 190 190 190 280 280 280 280 280 280
WSpd 4 6 6 6 6 6 6 6 7 7 7 7 7 7
WGst -- -- -- -- -- -- -- -- -- -- -- -- -- --
R01/19
XWnd -4 -0 -0 -0 -0 -0 -0 -0 7 7 7 7 7 7
HWnd -2 -6 -6 -6 -6 -6 -6 -6 -0 -0 -0 -0 -0 -0
R09/27
XWnd -2 -6 -6 -6 -6 -6 -6 -6 0 0 0 0 0 0
HWnd 3 -0 -0 -0 -0 -0 -0 -0 -7 -7 -7 -7 -7 -7

NOTE: TEMPO conditions in [brackets]. Keep in mind TEMPO conditions might be better (lower impact) than prevailing conditions.

Raw TAF
KMCI 052321Z 0600/0624 19006KT P6SM BKN100
  FM060800 28007KT P6SM BKN070
  FM061500 24009KT P6SM SCT050


Raw METAR
KMCI 052353Z 13004KT 10SM BKN100 OVC140 04/M06 A3027 RMK AO2 SLP260 T00391056 10050 20000 56010
KMCI 052253Z 18006KT 10SM BKN095 OVC110 04/M05 A3028 RMK AO2 SLP262 T00441050
KMCI 052153Z 19006KT 10SM BKN075 OVC200 04/M06 A3029 RMK AO2 SLP266 T00441056

METAR Board
Radar Display
Forecast Discussion

TAF Board Legend

Potential Impact
Threat None Slight Moderate High
Visibility (sm) ≥5.1 5.1>X≥3 3>X≥1 <1
Ceiling (100 ft) ≥30.1 30.1>X≥10 10>X≥5 <5
Wind Speed (kt) <10 10≤X<20 20≤X<30 ≥30
Wind Gust (kt) <15 15≤X<25 25≤X<35 ≥35
Weather No Wx Reported VCTS,-TS,-FZRA,SN TS,FZRA +TS,+FZRA,+SN